createdAt,value
2023-08-07T00:02:13.067Z,15.13
2023-08-07T00:04:40.315Z,15.71
2023-08-07T00:07:07.443Z,12.27
2023-08-07T00:09:34.558Z,13.39
2023-08-07T00:12:01.633Z,13.22
2023-08-07T00:14:28.988Z,14.94
2023-08-07T00:16:56.112Z,15.61
2023-08-07T00:19:23.276Z,15.39
2023-08-07T00:21:50.390Z,14.95
2023-08-07T00:24:19.732Z,15.34
2023-08-07T00:26:47.213Z,15.09
2023-08-07T00:29:14.364Z,15.13
2023-08-07T00:31:41.542Z,13.93
2023-08-07T00:34:08.647Z,15.58
2023-08-07T00:36:36.277Z,15.57
2023-08-07T00:39:07.280Z,12.36
2023-08-07T00:41:34.382Z,12.79
2023-08-07T00:44:01.730Z,13.56
2023-08-07T00:46:32.764Z,14.25
2023-08-07T00:49:00.108Z,14.58
2023-08-07T00:51:27.272Z,15.46
2023-08-07T00:53:54.416Z,12.93
2023-08-07T00:56:21.662Z,13.09
2023-08-07T00:58:48.854Z,12.78
2023-08-07T01:01:16.109Z,14.65
2023-08-07T01:03:43.397Z,15.41
2023-08-07T01:06:10.523Z,12.79
2023-08-07T01:08:37.694Z,15.07
2023-08-07T01:11:09.834Z,15.40
2023-08-07T01:13:58.957Z,14.90
2023-08-07T01:17:09.490Z,14.53
2023-08-07T01:19:37.508Z,14.33
2023-08-07T01:22:18.452Z,14.78
2023-08-07T01:24:47.045Z,13.18
2023-08-07T01:27:20.145Z,15.27
2023-08-07T01:29:50.698Z,15.27
2023-08-07T01:32:20.988Z,14.29
2023-08-07T01:34:48.324Z,14.43
2023-08-07T01:37:15.400Z,14.60
2023-08-07T01:39:42.610Z,12.65
2023-08-07T01:42:09.909Z,13.95
2023-08-07T01:44:38.118Z,14.99
2023-08-07T01:47:05.501Z,14.60
2023-08-07T01:49:32.643Z,14.54
2023-08-07T01:52:00.126Z,15.11
2023-08-07T01:54:27.192Z,14.11
2023-08-07T01:56:54.496Z,14.18
2023-08-07T01:59:22.453Z,14.65
2023-08-07T02:01:49.653Z,14.21
2023-08-07T02:04:18.721Z,14.87
2023-08-07T02:06:45.824Z,14.89
2023-08-07T02:09:12.883Z,14.46
2023-08-07T02:11:40.051Z,12.80
2023-08-07T02:14:07.142Z,14.57
2023-08-07T02:16:34.335Z,15.09
2023-08-07T02:19:01.550Z,14.11
2023-08-07T02:21:28.820Z,14.32
2023-08-07T02:23:55.921Z,15.08
2023-08-07T02:26:23.137Z,13.55
2023-08-07T02:28:50.420Z,14.68
2023-08-07T02:31:18.036Z,11.51
2023-08-07T02:33:45.303Z,14.14
2023-08-07T02:36:12.751Z,13.95
2023-08-07T02:38:40.004Z,14.24
2023-08-07T02:41:07.217Z,14.83
2023-08-07T02:43:35.735Z,13.50
2023-08-07T02:46:03.058Z,14.57
2023-08-07T02:48:30.231Z,14.78
2023-08-07T02:50:57.395Z,14.48
2023-08-07T02:53:24.548Z,14.60
2023-08-07T02:55:51.696Z,13.74
2023-08-07T02:58:21.066Z,14.13
2023-08-07T03:00:48.680Z,13.01
2023-08-07T03:03:15.950Z,14.90
2023-08-07T03:05:52.492Z,14.83
2023-08-07T03:08:19.641Z,15.12
2023-08-07T03:10:58.763Z,13.82
2023-08-07T03:13:28.965Z,14.20
2023-08-07T03:16:05.994Z,14.83
2023-08-07T03:18:33.545Z,12.68
2023-08-07T03:21:00.719Z,15.21
2023-08-07T03:23:30.720Z,15.24
2023-08-07T03:28:44.078Z,14.87
2023-08-07T03:31:11.234Z,14.03
2023-08-07T03:33:38.351Z,15.19
2023-08-07T03:36:05.546Z,14.28
2023-08-07T03:38:32.689Z,15.25
2023-08-07T03:41:00.501Z,15.47
2023-08-07T03:43:28.277Z,15.03
2023-08-07T03:46:00.315Z,14.78
2023-08-07T03:48:28.854Z,14.48
2023-08-07T03:51:03.923Z,14.53
2023-08-07T03:53:31.014Z,15.55
2023-08-07T03:56:01.503Z,15.31
2023-08-07T03:58:28.837Z,15.50
2023-08-07T04:00:55.996Z,15.05
2023-08-07T04:03:23.135Z,14.77
2023-08-07T04:05:53.328Z,15.31
2023-08-07T04:08:21.346Z,13.58
2023-08-07T04:11:08.655Z,14.44
2023-08-07T04:13:35.762Z,12.70
2023-08-07T04:16:05.670Z,15.01
2023-08-07T04:18:34.761Z,13.79
2023-08-07T04:21:01.998Z,14.06
2023-08-07T04:23:29.135Z,15.30
2023-08-07T04:25:56.713Z,15.10
2023-08-07T04:28:24.913Z,15.14
2023-08-07T04:30:53.262Z,15.10
2023-08-07T04:33:21.691Z,15.10
2023-08-07T04:35:49.070Z,14.13
2023-08-07T04:38:19.580Z,14.30
2023-08-07T04:40:49.996Z,15.25
2023-08-07T04:43:18.101Z,14.70
2023-08-07T04:48:30.784Z,12.38
2023-08-07T04:50:59.216Z,15.04
2023-08-07T04:53:26.877Z,15.20
2023-08-07T04:55:54.085Z,14.70
2023-08-07T04:58:21.154Z,15.12
2023-08-07T05:00:48.483Z,15.58
2023-08-07T05:03:16.996Z,15.09
2023-08-07T05:05:44.167Z,15.39
2023-08-07T05:08:11.259Z,15.00
2023-08-07T05:10:38.368Z,15.39
2023-08-07T05:13:05.414Z,14.40
2023-08-07T05:15:32.603Z,14.78
2023-08-07T05:17:59.784Z,13.03
2023-08-07T05:20:27.748Z,15.11
2023-08-07T05:22:57.795Z,14.95
2023-08-07T05:25:27.010Z,14.26
2023-08-07T05:27:54.105Z,12.49
2023-08-07T05:30:21.261Z,14.09
2023-08-07T05:32:48.439Z,15.04
2023-08-07T05:35:15.617Z,14.18
2023-08-07T05:37:42.732Z,15.33
2023-08-07T05:40:10.797Z,13.46
2023-08-07T05:42:37.922Z,15.11
2023-08-07T05:45:05.502Z,15.06
2023-08-07T05:47:33.666Z,15.49
2023-08-07T05:50:00.801Z,15.50
2023-08-07T05:52:28.452Z,15.00
2023-08-07T05:54:56.065Z,15.57
2023-08-07T05:57:23.264Z,13.81
2023-08-07T05:59:50.523Z,15.45
2023-08-07T06:02:17.627Z,14.93
2023-08-07T06:04:45.054Z,15.29
2023-08-07T06:07:12.472Z,15.45
2023-08-07T06:09:39.599Z,15.09
2023-08-07T06:12:07.015Z,15.66
2023-08-07T06:14:34.829Z,14.36
2023-08-07T06:17:03.157Z,14.63
2023-08-07T06:19:32.590Z,12.69
2023-08-07T06:22:00.930Z,14.63
2023-08-07T06:24:28.551Z,15.18
2023-08-07T06:26:56.001Z,13.22
2023-08-07T06:29:24.430Z,15.21
2023-08-07T06:31:51.739Z,15.60
2023-08-07T06:34:20.896Z,15.58
2023-08-07T06:36:48.006Z,14.72
2023-08-07T06:39:15.127Z,15.23
2023-08-07T06:41:42.188Z,15.60
2023-08-07T06:44:09.244Z,15.61
2023-08-07T06:46:36.387Z,15.04
2023-08-07T06:49:03.517Z,13.04
2023-08-07T06:51:30.699Z,14.88
2023-08-07T06:53:58.146Z,15.38
2023-08-07T06:56:26.018Z,14.61
2023-08-07T06:58:54.718Z,13.58
2023-08-07T07:01:22.111Z,14.66
2023-08-07T07:03:54.178Z,15.06
2023-08-07T07:06:22.399Z,15.37
2023-08-07T07:08:49.516Z,15.46
2023-08-07T07:11:16.636Z,15.95
2023-08-07T07:13:43.813Z,15.93
2023-08-07T07:16:13.121Z,13.07
2023-08-07T07:18:40.886Z,15.32
2023-08-07T07:21:08.001Z,15.14
2023-08-07T07:23:38.298Z,16.51
2023-08-07T07:26:05.381Z,16.07
2023-08-07T07:28:33.023Z,16.07
2023-08-07T07:31:00.160Z,16.68
2023-08-07T07:33:27.890Z,17.13
2023-08-07T07:35:56.057Z,16.12
2023-08-07T07:38:26.063Z,17.42
2023-08-07T07:40:59.139Z,16.50
2023-08-07T07:43:26.755Z,12.89
2023-08-07T07:45:54.108Z,16.06
2023-08-07T07:48:21.263Z,16.72
2023-08-07T07:50:48.408Z,17.56
2023-08-07T07:53:15.521Z,17.75
2023-08-07T07:55:42.649Z,17.63
2023-08-07T07:58:09.699Z,17.64
2023-08-07T08:00:38.715Z,17.80
2023-08-07T08:03:05.876Z,17.44
2023-08-07T08:05:33.490Z,17.16
2023-08-07T08:08:00.613Z,17.09
2023-08-07T08:10:28.129Z,17.66
2023-08-07T08:12:58.467Z,17.04
2023-08-07T08:15:26.283Z,17.68
2023-08-07T08:17:53.814Z,17.68
2023-08-07T08:20:20.969Z,17.64
2023-08-07T08:22:48.506Z,17.36
2023-08-07T08:25:15.650Z,15.80
2023-08-07T08:27:42.754Z,17.37
2023-08-07T08:30:10.429Z,16.83
2023-08-07T08:32:37.544Z,16.54
2023-08-07T08:35:04.686Z,17.58
2023-08-07T08:37:33.239Z,17.03
2023-08-07T08:40:00.554Z,16.97
2023-08-07T08:42:28.795Z,17.46
2023-08-07T08:44:57.635Z,17.33
2023-08-07T08:47:28.235Z,15.39
2023-08-07T08:50:03.606Z,17.24
2023-08-07T08:52:30.779Z,16.39
2023-08-07T08:54:58.377Z,16.44
2023-08-07T08:57:28.611Z,12.71
2023-08-07T08:59:56.511Z,14.86
2023-08-07T09:02:24.032Z,14.33
2023-08-07T09:04:52.154Z,16.59
2023-08-07T09:07:19.343Z,17.49
2023-08-07T09:09:46.427Z,17.55
2023-08-07T09:12:17.858Z,15.73
2023-08-07T09:14:45.004Z,17.45
2023-08-07T09:17:12.110Z,17.16
2023-08-07T09:19:39.226Z,17.16
2023-08-07T09:22:06.701Z,17.84
2023-08-07T09:24:33.773Z,17.54
2023-08-07T09:27:00.943Z,17.10
2023-08-07T09:29:27.999Z,17.75
2023-08-07T09:31:58.173Z,17.79
2023-08-07T09:34:25.814Z,18.14
2023-08-07T09:36:53.751Z,16.56
2023-08-07T09:39:21.244Z,16.74
2023-08-07T09:41:52.573Z,16.72
2023-08-07T09:44:19.686Z,18.24
2023-08-07T09:46:46.941Z,17.44
2023-08-07T09:49:14.815Z,18.21
2023-08-07T09:51:44.552Z,17.84
2023-08-07T09:54:11.801Z,18.11
2023-08-07T09:56:40.275Z,16.16
2023-08-07T09:59:07.614Z,18.02
2023-08-07T10:01:34.911Z,15.08
2023-08-07T10:04:02.091Z,15.73
2023-08-07T10:06:29.213Z,17.44
2023-08-07T10:08:57.377Z,18.00
2023-08-07T10:11:27.667Z,17.10
2023-08-07T10:13:56.817Z,17.74
2023-08-07T10:16:23.948Z,17.22
2023-08-07T10:18:51.077Z,17.92
2023-08-07T10:21:18.202Z,17.98
2023-08-07T10:23:45.350Z,16.76
2023-08-07T10:26:12.477Z,15.92
2023-08-07T10:28:40.707Z,18.13
2023-08-07T10:31:08.364Z,17.81
2023-08-07T10:33:35.458Z,15.85
2023-08-07T10:36:05.012Z,18.08
2023-08-07T10:38:32.115Z,16.71
2023-08-07T10:41:04.129Z,18.10
2023-08-07T10:43:31.714Z,18.28
2023-08-07T10:46:22.912Z,18.27
2023-08-07T10:48:58.946Z,18.23
2023-08-07T10:51:32.678Z,17.87
2023-08-07T10:54:02.171Z,17.89
2023-08-07T10:56:34.615Z,18.04
2023-08-07T10:59:12.390Z,18.11
2023-08-07T11:01:39.637Z,18.14
2023-08-07T11:04:08.449Z,17.28
2023-08-07T11:06:37.506Z,17.77
2023-08-07T11:09:06.429Z,18.33
2023-08-07T11:11:51.796Z,17.30
2023-08-07T11:14:20.242Z,16.43
2023-08-07T11:16:49.012Z,18.35
2023-08-07T11:19:17.679Z,18.54
2023-08-07T11:21:45.259Z,17.53
2023-08-07T11:24:16.960Z,18.53
2023-08-07T11:26:45.282Z,18.48
2023-08-07T11:29:12.414Z,18.36
2023-08-07T11:31:39.520Z,18.54
2023-08-07T11:34:06.612Z,18.57
2023-08-07T11:36:35.003Z,17.77
2023-08-07T11:39:02.287Z,18.19
2023-08-07T11:41:33.315Z,18.56
2023-08-07T11:44:01.213Z,18.42
2023-08-07T11:46:28.324Z,18.60
2023-08-07T11:48:56.431Z,18.55
2023-08-07T11:51:23.964Z,18.23
2023-08-07T11:53:51.729Z,18.50
2023-08-07T11:56:19.466Z,18.09
2023-08-07T11:58:48.489Z,17.77
2023-08-07T12:01:22.875Z,18.15
2023-08-07T12:03:56.513Z,18.05
2023-08-07T12:06:27.481Z,18.80
2023-08-07T12:08:58.635Z,18.65
2023-08-07T12:11:26.546Z,18.78
2023-08-07T12:13:53.797Z,18.81
2023-08-07T12:16:21.089Z,18.83
2023-08-07T12:18:49.890Z,18.70
2023-08-07T12:21:18.508Z,18.82
2023-08-07T12:23:45.703Z,18.64
2023-08-07T12:26:12.974Z,18.69
2023-08-07T12:28:40.131Z,18.42
2023-08-07T12:31:08.276Z,19.02
2023-08-07T12:33:35.404Z,18.87
2023-08-07T12:36:03.228Z,18.85
2023-08-07T12:38:30.306Z,18.67
2023-08-07T12:40:57.749Z,18.83
2023-08-07T12:43:25.725Z,18.78
2023-08-07T12:46:31.789Z,18.25
2023-08-07T12:48:44.205Z,18.61
2023-08-07T12:51:11.259Z,18.40
2023-08-07T12:53:38.334Z,18.59
2023-08-07T12:56:06.873Z,18.25
2023-08-07T12:58:33.925Z,18.51
2023-08-07T13:01:01.043Z,18.78
2023-08-07T13:03:28.178Z,18.99
2023-08-07T13:05:55.845Z,18.87
2023-08-07T13:08:22.951Z,18.94
2023-08-07T13:10:50.575Z,18.64
2023-08-07T13:13:17.753Z,19.05
2023-08-07T13:15:44.883Z,18.92
2023-08-07T13:18:12.150Z,19.38
2023-08-07T13:20:39.322Z,19.22
2023-08-07T13:23:07.967Z,19.02
2023-08-07T13:25:35.307Z,18.81
2023-08-07T13:28:05.808Z,19.10
2023-08-07T13:30:36.040Z,18.95
2023-08-07T13:33:04.420Z,18.70
2023-08-07T13:35:32.164Z,19.43
2023-08-07T13:37:59.308Z,19.44
2023-08-07T13:40:27.019Z,19.13
2023-08-07T13:42:54.804Z,19.13
2023-08-07T13:45:21.921Z,19.02
2023-08-07T13:47:49.066Z,18.10
2023-08-07T13:50:16.729Z,18.60
2023-08-07T13:52:43.829Z,19.13
2023-08-07T13:55:11.022Z,18.71
2023-08-07T13:57:38.216Z,18.97
2023-08-07T14:00:06.229Z,18.50
2023-08-07T14:02:36.062Z,18.93
2023-08-07T14:05:03.486Z,18.78
2023-08-07T14:07:30.751Z,18.73
2023-08-07T14:09:59.160Z,19.07
2023-08-07T14:12:26.806Z,18.92
2023-08-07T14:14:55.866Z,17.89
2023-08-07T14:17:25.778Z,17.52
2023-08-07T14:19:53.632Z,16.77
2023-08-07T14:22:20.910Z,16.26
2023-08-07T14:24:49.133Z,17.97
2023-08-07T14:27:21.172Z,19.38
2023-08-07T14:29:48.258Z,18.64
2023-08-07T14:32:16.678Z,19.48
2023-08-07T14:34:43.859Z,19.08
2023-08-07T14:37:10.969Z,17.11
2023-08-07T14:39:38.030Z,18.10
2023-08-07T14:42:05.137Z,17.16
2023-08-07T14:44:32.409Z,18.93
2023-08-07T14:46:59.526Z,19.17
2023-08-07T14:49:27.548Z,18.41
2023-08-07T14:51:58.372Z,19.06
2023-08-07T14:54:25.729Z,19.05
2023-08-07T14:56:52.922Z,18.75
2023-08-07T14:59:20.067Z,18.95
2023-08-07T15:01:47.237Z,18.65
2023-08-07T15:04:15.523Z,18.42
2023-08-07T15:06:43.552Z,18.04
2023-08-07T15:09:10.783Z,18.34
2023-08-07T15:11:39.669Z,18.41
2023-08-07T15:14:08.883Z,17.79
2023-08-07T15:16:38.734Z,18.68
2023-08-07T15:19:06.207Z,18.83
2023-08-07T15:21:33.425Z,18.20
2023-08-07T15:24:00.529Z,18.56
2023-08-07T15:26:27.668Z,18.47
2023-08-07T15:28:54.879Z,18.68
2023-08-07T15:31:21.963Z,18.19
2023-08-07T15:33:50.637Z,18.91
2023-08-07T15:36:17.778Z,18.65
2023-08-07T15:38:44.899Z,19.07
2023-08-07T15:41:12.532Z,18.32
2023-08-07T15:43:39.991Z,17.89
2023-08-07T15:46:07.173Z,17.03
2023-08-07T15:48:34.314Z,18.66
2023-08-07T15:51:01.449Z,18.36
2023-08-07T15:53:28.883Z,18.53
2023-08-07T15:55:56.097Z,16.85
2023-08-07T15:58:24.019Z,18.70
2023-08-07T16:00:51.350Z,18.99
2023-08-07T16:03:18.839Z,18.99
2023-08-07T16:05:46.554Z,17.42
2023-08-07T16:08:13.659Z,18.23
2023-08-07T16:10:40.884Z,19.02
2023-08-07T16:13:08.446Z,18.53
2023-08-07T16:15:36.121Z,18.73
2023-08-07T16:18:03.415Z,18.28
2023-08-07T16:20:30.578Z,18.58
2023-08-07T16:22:57.857Z,18.87
2023-08-07T16:25:25.518Z,18.86
2023-08-07T16:27:52.680Z,18.42
2023-08-07T16:30:20.248Z,18.34
2023-08-07T16:32:47.395Z,18.76
2023-08-07T16:35:15.335Z,18.35
2023-08-07T16:37:43.266Z,18.82
2023-08-07T16:40:10.827Z,18.82
2023-08-07T16:42:37.945Z,18.56
2023-08-07T16:45:05.800Z,18.47
2023-08-07T16:47:32.931Z,17.59
2023-08-07T16:50:00.047Z,18.54
2023-08-07T16:52:27.664Z,18.55
2023-08-07T16:54:56.031Z,18.65
2023-08-07T16:57:23.112Z,18.23
2023-08-07T16:59:50.245Z,18.01
2023-08-07T17:02:17.405Z,18.36
2023-08-07T17:04:44.627Z,18.33
2023-08-07T17:07:12.407Z,18.41
2023-08-07T17:09:39.818Z,18.17
2023-08-07T17:12:07.773Z,18.21
2023-08-07T17:14:34.917Z,18.28
2023-08-07T17:17:02.118Z,17.96
2023-08-07T17:19:29.203Z,18.45
2023-08-07T17:21:56.900Z,18.42
2023-08-07T17:24:24.030Z,18.40
2023-08-07T17:26:51.229Z,18.37
2023-08-07T17:29:18.442Z,17.79
2023-08-07T17:31:45.591Z,18.15
2023-08-07T17:34:12.740Z,18.03
2023-08-07T17:36:39.866Z,17.79
2023-08-07T17:39:07.022Z,17.90
2023-08-07T17:41:34.138Z,18.03
2023-08-07T17:44:01.261Z,18.02
2023-08-07T17:46:28.426Z,18.19
2023-08-07T17:48:55.842Z,18.16
2023-08-07T17:51:22.929Z,17.70
2023-08-07T17:53:50.035Z,18.10
2023-08-07T17:56:17.079Z,18.09
2023-08-07T17:58:44.117Z,17.67
2023-08-07T18:01:11.216Z,17.87
2023-08-07T18:03:38.301Z,18.02
2023-08-07T18:06:05.356Z,17.87
2023-08-07T18:08:32.604Z,17.82
2023-08-07T18:10:59.657Z,17.96
2023-08-07T18:13:28.073Z,17.43
2023-08-07T18:15:56.032Z,17.92
2023-08-07T18:18:23.243Z,17.67
2023-08-07T18:20:50.437Z,17.53
2023-08-07T18:23:17.588Z,17.50
2023-08-07T18:25:44.661Z,17.82
2023-08-07T18:28:11.762Z,17.71
2023-08-07T18:30:39.070Z,17.78
2023-08-07T18:33:06.281Z,17.76
2023-08-07T18:35:33.533Z,17.73
2023-08-07T18:41:29.382Z,17.60
2023-08-07T18:43:57.240Z,17.55
2023-08-07T18:46:24.338Z,17.51
2023-08-07T18:48:52.278Z,16.92
2023-08-07T18:51:19.674Z,17.38
2023-08-07T18:53:46.764Z,16.95
2023-08-07T18:56:13.861Z,16.94
2023-08-07T18:58:40.910Z,17.43
2023-08-07T19:01:08.114Z,17.42
2023-08-07T19:03:35.821Z,16.52
2023-08-07T19:06:06.570Z,17.24
2023-08-07T19:08:34.825Z,17.41
2023-08-07T19:11:02.229Z,17.40
2023-08-07T19:13:29.345Z,17.38
2023-08-07T19:15:58.018Z,17.06
2023-08-07T19:18:26.118Z,17.00
2023-08-07T19:20:53.788Z,17.35
2023-08-07T19:23:21.271Z,16.82
2023-08-07T19:25:48.438Z,17.32
2023-08-07T19:28:15.689Z,17.09
2023-08-07T19:30:49.217Z,17.23
2023-08-07T19:33:19.771Z,17.19
2023-08-07T19:35:46.896Z,17.13
2023-08-07T19:38:14.169Z,16.62
2023-08-07T19:40:41.399Z,16.05
2023-08-07T19:43:08.451Z,17.04
2023-08-07T19:45:36.680Z,15.79
2023-08-07T19:48:04.150Z,16.65
2023-08-07T19:50:31.255Z,16.94
2023-08-07T19:52:58.420Z,16.91
2023-08-07T19:55:28.441Z,16.37
2023-08-07T19:57:58.072Z,16.86
2023-08-07T20:00:25.778Z,16.31
2023-08-07T20:02:52.996Z,16.24
2023-08-07T20:05:20.167Z,16.75
2023-08-07T20:07:47.482Z,16.34
2023-08-07T20:10:21.014Z,16.71
2023-08-07T20:12:49.075Z,16.71
2023-08-07T20:15:17.238Z,16.51
2023-08-07T20:17:49.866Z,16.33
2023-08-07T20:20:21.378Z,16.62
2023-08-07T20:22:48.764Z,15.57
2023-08-07T20:25:16.393Z,16.33
2023-08-07T20:27:43.597Z,16.51
2023-08-07T20:30:11.250Z,16.03
2023-08-07T20:32:39.055Z,15.90
2023-08-07T20:35:07.124Z,16.51
2023-08-07T20:37:34.669Z,16.49
2023-08-07T20:40:01.898Z,16.47
2023-08-07T20:42:29.674Z,15.77
2023-08-07T20:44:58.201Z,16.44
2023-08-07T20:47:26.235Z,16.17
2023-08-07T20:49:53.410Z,16.18
2023-08-07T20:52:20.557Z,16.16
2023-08-07T20:54:47.651Z,16.11
2023-08-07T20:57:14.760Z,16.26
2023-08-07T20:59:41.913Z,15.79
2023-08-07T21:02:09.097Z,16.00
2023-08-07T21:04:36.580Z,15.65
2023-08-07T21:07:03.880Z,16.14
2023-08-07T21:09:31.021Z,16.09
2023-08-07T21:11:58.496Z,16.04
2023-08-07T21:14:25.954Z,15.32
2023-08-07T21:16:53.164Z,16.02
2023-08-07T21:19:20.471Z,16.02
2023-08-07T21:21:47.643Z,15.76
2023-08-07T21:24:14.814Z,14.39
2023-08-07T21:26:42.263Z,15.64
2023-08-07T21:29:09.692Z,15.31
2023-08-07T21:31:37.069Z,15.40
2023-08-07T21:34:04.562Z,15.68
2023-08-07T21:36:31.775Z,15.93
2023-08-07T21:38:59.124Z,15.62
2023-08-07T21:41:27.589Z,15.96
2023-08-07T21:43:54.860Z,15.94
2023-08-07T21:46:24.607Z,15.63
2023-08-07T21:48:52.501Z,15.64
2023-08-07T21:51:19.671Z,15.81
2023-08-07T21:53:46.784Z,15.55
2023-08-07T21:56:14.013Z,15.98
2023-08-07T21:58:41.160Z,15.79
2023-08-07T22:01:08.434Z,15.68
2023-08-07T22:03:36.072Z,15.65
2023-08-07T22:06:03.935Z,15.81
2023-08-07T22:08:33.424Z,15.98
2023-08-07T22:11:01.158Z,15.82
2023-08-07T22:13:28.435Z,15.98
2023-08-07T22:15:55.956Z,15.48
2023-08-07T22:18:23.943Z,15.79
2023-08-07T22:20:51.069Z,15.77
2023-08-07T22:23:18.486Z,15.92
2023-08-07T22:25:45.657Z,15.90
2023-08-07T22:28:12.839Z,14.97
2023-08-07T22:30:40.035Z,15.88
2023-08-07T22:33:07.318Z,15.55
2023-08-07T22:35:34.690Z,14.93
2023-08-07T22:38:01.795Z,15.42
2023-08-07T22:40:28.945Z,15.64
2023-08-07T22:42:56.305Z,15.86
2023-08-07T22:45:23.620Z,15.52
2023-08-07T22:47:50.963Z,15.59
2023-08-07T22:50:19.771Z,15.01
2023-08-07T22:52:46.956Z,15.67
2023-08-07T22:55:14.074Z,15.67
2023-08-07T22:57:41.209Z,15.08
2023-08-07T23:00:11.670Z,15.59
2023-08-07T23:02:39.517Z,15.80
2023-08-07T23:05:09.223Z,15.35
2023-08-07T23:07:36.570Z,15.53
2023-08-07T23:10:04.011Z,15.60
2023-08-07T23:12:31.142Z,15.78
2023-08-07T23:14:58.624Z,15.49
2023-08-07T23:17:25.990Z,15.40
2023-08-07T23:19:53.192Z,15.48
2023-08-07T23:22:20.287Z,15.06
2023-08-07T23:24:47.434Z,15.50
2023-08-07T23:27:14.930Z,15.80
2023-08-07T23:29:43.243Z,15.82
2023-08-07T23:32:11.422Z,15.44
2023-08-07T23:34:38.555Z,15.61
2023-08-07T23:37:06.145Z,15.56
2023-08-07T23:39:33.280Z,15.82
2023-08-07T23:42:01.607Z,15.55
2023-08-07T23:44:29.104Z,15.71
2023-08-07T23:46:56.482Z,15.37
2023-08-07T23:49:23.796Z,15.64
2023-08-07T23:51:50.964Z,15.72
2023-08-07T23:54:18.112Z,15.59
2023-08-07T23:56:45.309Z,15.78
2023-08-07T23:59:12.480Z,15.76
